createdAt,value
2023-03-20T00:00:21.444Z,93.48
2023-03-20T00:01:21.434Z,93.59
2023-03-20T00:02:21.428Z,93.59
2023-03-20T00:03:21.433Z,93.68
2023-03-20T00:04:21.418Z,93.89
2023-03-20T00:05:21.391Z,93.79
2023-03-20T00:06:21.367Z,93.89
2023-03-20T00:07:21.358Z,93.79
2023-03-20T00:08:21.361Z,93.79
2023-03-20T00:09:21.325Z,93.79
2023-03-20T00:10:21.312Z,93.89
2023-03-20T00:11:21.306Z,93.99
2023-03-20T00:12:21.294Z,94.10
2023-03-20T00:13:21.304Z,94.10
2023-03-20T00:14:21.263Z,94.20
2023-03-20T00:15:21.248Z,94.30
2023-03-20T00:16:21.303Z,93.99
2023-03-20T00:17:21.413Z,94.10
2023-03-20T00:18:21.236Z,93.99
2023-03-20T00:19:21.197Z,93.79
2023-03-20T00:20:21.178Z,93.79
2023-03-20T00:21:21.189Z,93.89
2023-03-20T00:22:21.175Z,93.79
2023-03-20T00:23:21.170Z,93.89
2023-03-20T00:24:21.130Z,93.99
2023-03-20T00:25:21.105Z,93.68
2023-03-20T00:26:21.127Z,93.79
2023-03-20T00:27:21.081Z,93.89
2023-03-20T00:28:21.130Z,93.99
2023-03-20T00:29:21.117Z,93.99
2023-03-20T00:30:21.059Z,93.89
2023-03-20T00:31:21.134Z,93.68
2023-03-20T00:32:21.053Z,93.79
2023-03-20T00:33:21.037Z,93.79
2023-03-20T00:34:20.991Z,93.79
2023-03-20T00:35:21.008Z,93.79
2023-03-20T00:36:20.975Z,93.68
2023-03-20T00:37:21.040Z,93.79
2023-03-20T00:38:20.998Z,93.79
2023-03-20T00:39:20.952Z,93.99
2023-03-20T00:40:20.928Z,93.99
2023-03-20T00:41:20.967Z,94.20
2023-03-20T00:42:20.905Z,94.10
2023-03-20T00:43:20.910Z,94.20
2023-03-20T00:44:20.871Z,94.20
2023-03-20T00:46:35.011Z,94.10
2023-03-20T00:47:35.900Z,93.89
2023-03-20T00:48:35.919Z,93.99
2023-03-20T00:49:35.940Z,93.89
2023-03-20T00:50:35.877Z,93.89
2023-03-20T00:51:35.868Z,93.99
2023-03-20T00:52:35.868Z,93.89
2023-03-20T00:53:35.870Z,93.99
2023-03-20T00:54:35.808Z,93.99
2023-03-20T00:55:36.061Z,94.10
2023-03-20T00:56:35.791Z,94.24
2023-03-20T00:57:35.772Z,94.24
2023-03-20T00:58:35.809Z,94.45
2023-03-20T00:59:35.755Z,94.45
2023-03-20T01:00:35.766Z,94.45
2023-03-20T01:01:42.294Z,94.45
2023-03-20T01:02:43.240Z,94.45
2023-03-20T01:03:44.347Z,94.24
2023-03-20T01:04:42.229Z,94.24
2023-03-20T01:05:42.285Z,94.14
2023-03-20T01:06:42.174Z,94.14
2023-03-20T01:07:35.691Z,94.14
2023-03-20T01:08:35.670Z,94.04
2023-03-20T01:09:35.635Z,94.04
2023-03-20T01:10:35.634Z,94.04
2023-03-20T01:11:35.598Z,93.83
2023-03-20T01:12:35.576Z,93.83
2023-03-20T01:13:35.576Z,93.83
2023-03-20T01:14:35.547Z,93.83
2023-03-20T01:15:35.846Z,93.83
2023-03-20T01:16:35.623Z,93.93
2023-03-20T01:17:35.507Z,94.04
2023-03-20T01:18:35.531Z,94.04
2023-03-20T01:19:35.486Z,93.93
2023-03-20T01:20:35.476Z,93.93
2023-03-20T01:21:35.466Z,93.93
2023-03-20T01:22:35.449Z,93.93
2023-03-20T01:23:35.458Z,93.93
2023-03-20T01:24:35.430Z,93.93
2023-03-20T01:25:35.599Z,93.93
2023-03-20T01:26:35.415Z,94.04
2023-03-20T01:27:35.442Z,94.14
2023-03-20T01:28:35.383Z,94.34
2023-03-20T01:29:35.350Z,94.45
2023-03-20T01:30:35.348Z,94.55
2023-03-20T01:31:35.403Z,94.45
2023-03-20T01:32:35.428Z,94.45
2023-03-20T01:33:35.326Z,94.45
2023-03-20T01:34:35.292Z,94.55
2023-03-20T01:35:35.680Z,94.65
2023-03-20T01:36:35.261Z,94.65
2023-03-20T01:37:35.292Z,94.55
2023-03-20T01:38:35.249Z,94.45
2023-03-20T01:39:35.270Z,94.39
2023-03-20T01:40:35.206Z,94.39
2023-03-20T01:41:35.205Z,94.39
2023-03-20T01:42:35.184Z,94.39
2023-03-20T01:43:35.196Z,94.49
2023-03-20T01:44:35.165Z,94.59
2023-03-20T01:45:35.532Z,94.59
2023-03-20T01:46:35.134Z,94.70
2023-03-20T01:47:35.124Z,94.70
2023-03-20T01:48:35.164Z,94.74
2023-03-20T01:49:35.101Z,94.84
2023-03-20T01:50:35.080Z,94.95
2023-03-20T01:51:35.070Z,95.25
2023-03-20T01:52:35.054Z,95.56
2023-03-20T01:53:35.083Z,95.67
2023-03-20T01:54:35.026Z,95.77
2023-03-20T01:55:35.286Z,95.56
2023-03-20T01:56:35.013Z,95.36
2023-03-20T01:57:35.038Z,95.21
2023-03-20T01:58:34.992Z,95.25
2023-03-20T01:59:34.963Z,95.25
2023-03-20T02:00:34.955Z,95.25
2023-03-20T02:01:35.000Z,95.25
2023-03-20T02:02:34.928Z,95.46
2023-03-20T02:03:34.940Z,95.56
2023-03-20T02:04:34.944Z,95.77
2023-03-20T02:05:35.136Z,95.87
2023-03-20T02:06:34.929Z,96.08
2023-03-20T02:07:34.864Z,96.18
2023-03-20T02:08:34.874Z,96.39
2023-03-20T02:09:34.863Z,96.48
2023-03-20T02:10:34.863Z,96.59
2023-03-20T02:11:34.824Z,96.59
2023-03-20T02:12:34.799Z,96.59
2023-03-20T02:13:34.800Z,96.48
2023-03-20T02:14:34.775Z,96.28
2023-03-20T02:15:35.108Z,96.18
2023-03-20T02:16:34.794Z,96.08
2023-03-20T02:17:34.741Z,95.97
2023-03-20T02:18:34.733Z,95.97
2023-03-20T02:19:34.710Z,95.97
2023-03-20T02:20:34.689Z,96.08
2023-03-20T02:21:34.689Z,96.28
2023-03-20T02:22:34.679Z,96.39
2023-03-20T02:23:34.704Z,96.48
2023-03-20T02:24:34.641Z,96.53
2023-03-20T02:25:34.959Z,96.64
2023-03-20T02:26:34.637Z,96.73
2023-03-20T02:27:34.618Z,96.73
2023-03-20T02:28:34.624Z,96.64
2023-03-20T02:29:34.595Z,96.59
2023-03-20T02:30:34.597Z,96.53
2023-03-20T02:31:34.571Z,96.53
2023-03-20T02:32:34.584Z,96.64
2023-03-20T02:33:34.543Z,96.73
2023-03-20T02:34:34.512Z,96.84
2023-03-20T02:35:34.887Z,96.94
2023-03-20T02:36:34.489Z,96.84
2023-03-20T02:37:34.475Z,96.99
2023-03-20T02:38:34.505Z,97.09
2023-03-20T02:39:34.456Z,97.09
2023-03-20T02:40:34.443Z,97.14
2023-03-20T02:41:34.512Z,97.14
2023-03-20T02:42:34.409Z,97.44
2023-03-20T02:43:34.426Z,97.86
2023-03-20T02:44:34.393Z,98.27
2023-03-20T02:45:34.685Z,98.79
2023-03-20T02:46:34.423Z,99.05
2023-03-20T02:47:34.356Z,99.35
2023-03-20T02:48:34.324Z,99.46
2023-03-20T02:49:34.349Z,99.46
2023-03-20T02:50:34.313Z,99.46
2023-03-20T02:51:34.297Z,99.46
2023-03-20T02:52:34.291Z,99.35
2023-03-20T02:53:34.269Z,99.46
2023-03-20T02:54:34.284Z,99.46
2023-03-20T02:55:34.573Z,99.46
2023-03-20T02:56:34.229Z,99.46
2023-03-20T02:57:34.246Z,99.46
2023-03-20T02:58:34.218Z,99.35
2023-03-20T02:59:34.210Z,98.90
2023-03-20T03:00:34.175Z,98.59
2023-03-20T03:01:34.240Z,98.28
2023-03-20T03:02:34.166Z,97.97
2023-03-20T03:03:34.228Z,97.66
2023-03-20T03:04:41.895Z,97.25
2023-03-20T03:05:34.351Z,97.00
2023-03-20T03:06:34.098Z,96.69
2023-03-20T03:07:34.104Z,96.59
2023-03-20T03:08:34.073Z,96.48
2023-03-20T03:09:34.089Z,96.18
2023-03-20T03:10:34.058Z,95.97
2023-03-20T03:11:34.038Z,95.67
2023-03-20T03:12:34.054Z,95.67
2023-03-20T03:13:34.013Z,95.67
2023-03-20T03:14:34.075Z,95.67
2023-03-20T03:15:34.298Z,95.56
2023-03-20T03:16:33.963Z,95.56
2023-03-20T03:17:33.973Z,95.56
2023-03-20T03:18:33.960Z,95.46
2023-03-20T03:19:41.919Z,95.46
2023-03-20T03:20:33.933Z,95.36
2023-03-20T03:21:33.913Z,95.36
2023-03-20T03:22:33.885Z,95.46
2023-03-20T03:23:33.900Z,95.46
2023-03-20T03:24:40.841Z,95.36
2023-03-20T03:25:34.106Z,95.46
2023-03-20T03:26:33.833Z,95.25
2023-03-20T03:27:33.831Z,95.15
2023-03-20T03:28:33.865Z,95.15
2023-03-20T03:29:33.808Z,95.05
2023-03-20T03:30:33.784Z,94.95
2023-03-20T03:31:33.845Z,95.05
2023-03-20T03:32:33.995Z,95.25
2023-03-20T03:33:33.783Z,95.25
2023-03-20T03:34:33.781Z,95.25
2023-03-20T03:35:34.078Z,95.40
2023-03-20T03:36:33.710Z,95.40
2023-03-20T03:37:33.702Z,95.40
2023-03-20T03:38:33.687Z,95.40
2023-03-20T03:39:33.690Z,100.00
2023-03-20T03:40:33.660Z,100.00
2023-03-20T03:41:33.644Z,96.06
2023-03-20T03:42:33.638Z,96.27
2023-03-20T03:43:33.614Z,96.47
2023-03-20T03:44:33.634Z,96.68
2023-03-20T03:45:34.034Z,96.78
2023-03-20T03:46:33.656Z,96.89
2023-03-20T03:47:33.576Z,96.99
2023-03-20T03:48:33.625Z,100.00
2023-03-20T03:49:33.564Z,96.99
2023-03-20T03:50:33.540Z,96.78
2023-03-20T03:51:33.549Z,96.78
2023-03-20T03:52:33.504Z,96.73
2023-03-20T03:53:33.503Z,96.84
2023-03-20T03:54:33.517Z,96.84
2023-03-20T03:55:33.647Z,96.73
2023-03-20T03:56:33.446Z,96.73
2023-03-20T03:57:33.459Z,96.53
2023-03-20T03:58:33.424Z,96.43
2023-03-20T03:59:33.427Z,96.33
2023-03-20T04:00:33.401Z,95.92
2023-03-20T04:01:33.415Z,94.99
2023-03-20T04:02:33.369Z,94.17
2023-03-20T04:03:33.376Z,93.20
2023-03-20T04:04:33.410Z,92.79
2023-03-20T04:05:33.745Z,92.69
2023-03-20T04:06:33.320Z,92.69
2023-03-20T04:07:33.311Z,92.69
2023-03-20T04:08:33.291Z,92.69
2023-03-20T04:09:33.309Z,92.48
2023-03-20T04:10:33.278Z,92.27
2023-03-20T04:11:33.269Z,92.17
2023-03-20T04:12:33.247Z,92.17
2023-03-20T04:13:33.247Z,92.17
2023-03-20T04:14:33.244Z,92.07
2023-03-20T04:15:33.497Z,91.97
2023-03-20T04:16:33.223Z,91.86
2023-03-20T04:17:33.204Z,91.55
2023-03-20T04:18:33.190Z,91.55
2023-03-20T04:19:33.170Z,91.55
2023-03-20T04:20:33.140Z,91.55
2023-03-20T04:21:33.135Z,91.86
2023-03-20T04:22:33.116Z,92.07
2023-03-20T04:23:33.206Z,92.07
2023-03-20T04:24:33.145Z,91.97
2023-03-20T04:25:33.170Z,91.86
2023-03-20T04:26:33.132Z,91.86
2023-03-20T04:27:33.215Z,91.97
2023-03-20T04:28:33.167Z,92.11
2023-03-20T04:29:33.089Z,92.11
2023-03-20T04:30:33.064Z,92.32
2023-03-20T04:31:33.180Z,92.42
2023-03-20T04:32:33.061Z,92.52
2023-03-20T04:33:33.053Z,92.73
2023-03-20T04:34:33.042Z,92.83
2023-03-20T04:35:33.167Z,92.93
2023-03-20T04:36:33.047Z,93.14
2023-03-20T04:37:32.984Z,93.14
2023-03-20T04:38:32.968Z,93.14
2023-03-20T04:39:33.011Z,93.24
2023-03-20T04:40:32.915Z,93.24
2023-03-20T04:41:32.999Z,93.35
2023-03-20T04:42:32.881Z,93.35
2023-03-20T04:43:32.908Z,93.49
2023-03-20T04:44:32.965Z,93.49
2023-03-20T04:45:32.972Z,93.59
2023-03-20T04:46:32.878Z,93.70
2023-03-20T04:47:32.823Z,93.80
2023-03-20T04:48:32.823Z,93.90
2023-03-20T04:49:32.837Z,93.90
2023-03-20T04:50:32.830Z,94.01
2023-03-20T04:51:32.840Z,94.11
2023-03-20T04:52:32.779Z,94.11
2023-03-20T04:53:32.813Z,94.21
2023-03-20T04:54:33.202Z,94.21
2023-03-20T04:55:32.807Z,94.31
2023-03-20T04:56:32.681Z,94.42
2023-03-20T04:57:32.720Z,94.52
2023-03-20T04:58:33.072Z,94.52
2023-03-20T04:59:32.709Z,94.73
2023-03-20T05:00:32.601Z,94.73
2023-03-20T05:01:32.753Z,94.98
2023-03-20T05:02:32.680Z,95.08
2023-03-20T05:03:33.129Z,95.28
2023-03-20T05:04:32.991Z,95.59
2023-03-20T05:05:32.596Z,95.59
2023-03-20T05:06:32.763Z,95.70
2023-03-20T05:07:32.570Z,95.80
2023-03-20T05:08:32.553Z,95.80
2023-03-20T05:09:32.634Z,95.90
2023-03-20T05:10:32.554Z,95.90
2023-03-20T05:11:32.504Z,95.90
2023-03-20T05:12:32.473Z,95.90
2023-03-20T05:13:32.503Z,95.90
2023-03-20T05:14:32.503Z,95.90
2023-03-20T05:15:32.434Z,96.00
2023-03-20T05:16:32.497Z,96.11
2023-03-20T05:17:32.476Z,96.21
2023-03-20T05:18:32.480Z,96.21
2023-03-20T05:19:32.424Z,96.21
2023-03-20T05:20:32.390Z,96.11
2023-03-20T05:21:32.377Z,96.11
2023-03-20T05:22:32.370Z,96.00
2023-03-20T05:23:32.388Z,96.00
2023-03-20T05:24:32.346Z,96.05
2023-03-20T05:25:32.321Z,96.15
2023-03-20T05:26:32.346Z,96.15
2023-03-20T05:27:32.311Z,96.05
2023-03-20T05:28:32.290Z,96.05
2023-03-20T05:29:32.270Z,96.05
2023-03-20T05:30:32.236Z,96.05
2023-03-20T05:31:32.268Z,95.95
2023-03-20T05:32:32.246Z,96.05
2023-03-20T05:33:32.189Z,95.95
2023-03-20T05:34:32.206Z,95.95
2023-03-20T05:35:32.165Z,95.95
2023-03-20T05:36:32.166Z,95.95
2023-03-20T05:37:32.145Z,95.95
2023-03-20T05:38:32.148Z,95.95
2023-03-20T05:39:32.138Z,95.95
2023-03-20T05:40:32.093Z,95.95
2023-03-20T05:41:32.124Z,95.95
2023-03-20T05:42:32.033Z,96.05
2023-03-20T05:43:32.091Z,96.05
2023-03-20T05:44:32.100Z,96.15
2023-03-20T05:45:32.041Z,96.15
2023-03-20T05:46:32.058Z,96.15
2023-03-20T05:47:32.145Z,96.15
2023-03-20T05:48:32.149Z,96.15
2023-03-20T05:49:32.527Z,96.05
2023-03-20T05:50:32.034Z,96.05
2023-03-20T05:51:31.994Z,95.95
2023-03-20T05:52:32.007Z,95.95
2023-03-20T05:53:32.007Z,95.84
2023-03-20T05:54:31.926Z,95.84
2023-03-20T05:55:31.918Z,95.64
2023-03-20T05:56:32.052Z,95.64
2023-03-20T05:57:31.890Z,95.64
2023-03-20T05:58:31.951Z,95.64
2023-03-20T05:59:31.940Z,95.74
2023-03-20T06:00:31.876Z,95.64
2023-03-20T06:01:31.866Z,95.53
2023-03-20T06:02:31.920Z,95.53
2023-03-20T06:03:31.896Z,95.53
2023-03-20T06:04:31.852Z,95.43
2023-03-20T06:05:31.806Z,95.43
2023-03-20T06:06:31.773Z,95.43
2023-03-20T06:07:31.777Z,95.33
2023-03-20T06:08:31.845Z,95.23
2023-03-20T06:09:31.757Z,95.23
2023-03-20T06:10:31.730Z,95.12
2023-03-20T06:11:31.725Z,95.02
2023-03-20T06:12:31.668Z,95.02
2023-03-20T06:13:31.794Z,94.92
2023-03-20T06:14:31.643Z,94.81
2023-03-20T06:15:31.760Z,94.60
2023-03-20T06:16:31.709Z,94.51
2023-03-20T06:17:31.632Z,94.36
2023-03-20T06:18:31.745Z,94.36
2023-03-20T06:19:31.697Z,94.26
2023-03-20T06:20:31.618Z,94.15
2023-03-20T06:21:31.592Z,94.05
2023-03-20T06:22:31.618Z,94.05
2023-03-20T06:23:31.538Z,94.05
2023-03-20T06:24:31.682Z,94.05
2023-03-20T06:25:31.590Z,93.95
2023-03-20T06:26:31.527Z,93.84
2023-03-20T06:27:31.497Z,93.84
2023-03-20T06:28:31.569Z,93.74
2023-03-20T06:29:31.482Z,93.74
2023-03-20T06:30:31.486Z,93.64
2023-03-20T06:31:31.582Z,93.23
2023-03-20T06:32:31.442Z,92.87
2023-03-20T06:33:31.376Z,92.67
2023-03-20T06:34:31.460Z,92.57
2023-03-20T06:35:31.548Z,92.67
2023-03-20T06:36:31.368Z,92.46
2023-03-20T06:37:31.396Z,92.11
2023-03-20T06:38:31.370Z,91.70
2023-03-20T06:39:31.326Z,91.49
2023-03-20T06:40:31.309Z,91.49
2023-03-20T06:41:34.650Z,91.60
2023-03-20T06:42:31.285Z,91.60
2023-03-20T06:43:32.000Z,91.80
2023-03-20T06:44:31.262Z,92.01
2023-03-20T06:45:31.256Z,92.21
2023-03-20T06:46:31.350Z,92.21
2023-03-20T06:47:31.196Z,92.21
2023-03-20T06:48:31.186Z,91.80
2023-03-20T06:49:31.176Z,91.91
2023-03-20T06:50:31.178Z,92.01
2023-03-20T06:51:31.144Z,91.91
2023-03-20T06:52:31.125Z,91.80
2023-03-20T06:53:31.111Z,91.60
2023-03-20T06:54:31.124Z,91.29
2023-03-20T06:55:31.175Z,91.19
2023-03-20T06:56:31.097Z,91.29
2023-03-20T06:57:31.067Z,91.49
2023-03-20T06:58:31.050Z,91.39
2023-03-20T06:59:31.062Z,91.39
2023-03-20T07:00:31.184Z,91.49
2023-03-20T07:01:31.035Z,91.60
2023-03-20T07:02:30.997Z,91.39
2023-03-20T07:03:31.027Z,91.49
2023-03-20T07:04:31.023Z,91.25
2023-03-20T07:05:31.008Z,91.04
2023-03-20T07:06:30.963Z,90.94
2023-03-20T07:07:30.937Z,90.94
2023-03-20T07:08:30.922Z,90.63
2023-03-20T07:09:30.968Z,90.22
2023-03-20T07:10:30.939Z,90.12
2023-03-20T07:11:30.892Z,89.91
2023-03-20T07:12:30.874Z,89.91
2023-03-20T07:13:30.879Z,89.91
2023-03-20T07:14:30.861Z,89.70
2023-03-20T07:15:30.871Z,89.81
2023-03-20T07:16:30.849Z,89.70
2023-03-20T07:17:30.823Z,89.66
2023-03-20T07:18:30.810Z,89.36
2023-03-20T07:19:30.775Z,89.25
2023-03-20T07:20:30.858Z,88.84
2023-03-20T07:21:30.762Z,88.95
2023-03-20T07:22:30.755Z,88.74
2023-03-20T07:23:30.806Z,88.43
2023-03-20T07:24:30.717Z,88.64
2023-03-20T07:25:41.880Z,88.43
2023-03-20T07:26:30.712Z,88.23
2023-03-20T07:27:30.751Z,88.23
2023-03-20T07:28:30.697Z,88.33
2023-03-20T07:29:30.649Z,88.23
2023-03-20T07:30:30.665Z,87.40
2023-03-20T07:31:30.778Z,87.10
2023-03-20T07:32:30.618Z,87.10
2023-03-20T07:33:30.636Z,86.68
2023-03-20T07:34:30.619Z,86.68
2023-03-20T07:35:30.639Z,86.89
2023-03-20T07:36:30.654Z,86.68
2023-03-20T07:37:30.560Z,86.79
2023-03-20T07:38:30.546Z,87.10
2023-03-20T07:39:31.327Z,87.10
2023-03-20T07:40:30.559Z,86.38
2023-03-20T07:41:30.491Z,86.38
2023-03-20T07:42:30.524Z,86.48
2023-03-20T07:43:30.466Z,86.48
2023-03-20T07:44:30.467Z,86.48
2023-03-20T07:45:30.520Z,86.38
2023-03-20T07:46:30.448Z,86.38
2023-03-20T07:47:30.433Z,86.17
2023-03-20T07:48:30.495Z,85.66
2023-03-20T07:49:30.403Z,85.66
2023-03-20T07:50:30.387Z,85.86
2023-03-20T07:51:30.364Z,85.86
2023-03-20T07:52:30.388Z,86.17
2023-03-20T07:53:30.371Z,86.17
2023-03-20T07:54:30.335Z,86.24
2023-03-20T07:55:30.327Z,86.24
2023-03-20T07:56:30.309Z,85.93
2023-03-20T07:57:30.284Z,85.62
2023-03-20T07:58:30.282Z,85.62
2023-03-20T07:59:30.257Z,86.03
2023-03-20T08:00:30.328Z,85.78
2023-03-20T08:01:30.281Z,85.52
2023-03-20T08:02:30.340Z,85.41
2023-03-20T08:03:30.352Z,85.21
2023-03-20T08:04:30.201Z,85.31
2023-03-20T08:05:30.242Z,85.41
2023-03-20T08:06:30.328Z,85.52
2023-03-20T08:07:30.158Z,84.90
2023-03-20T08:08:30.165Z,84.45
2023-03-20T08:09:30.237Z,84.34
2023-03-20T08:10:30.171Z,83.83
2023-03-20T08:11:31.173Z,84.45
2023-03-20T08:12:30.112Z,83.83
2023-03-20T08:13:30.111Z,83.83
2023-03-20T08:14:30.074Z,83.12
2023-03-20T08:15:30.094Z,82.70
2023-03-20T08:16:30.076Z,82.81
2023-03-20T08:17:30.084Z,83.01
2023-03-20T08:18:30.030Z,83.22
2023-03-20T08:19:30.038Z,82.97
2023-03-20T08:20:30.030Z,83.07
2023-03-20T08:21:29.990Z,82.87
2023-03-20T08:22:30.024Z,82.77
2023-03-20T08:23:29.960Z,82.36
2023-03-20T08:24:30.010Z,82.56
2023-03-20T08:25:29.945Z,82.56
2023-03-20T08:26:29.940Z,82.15
2023-03-20T08:27:29.913Z,82.36
2023-03-20T08:28:46.195Z,82.26
2023-03-20T08:29:29.893Z,82.46
2023-03-20T08:30:29.910Z,82.46
2023-03-20T08:31:29.938Z,82.67
2023-03-20T08:32:29.931Z,82.56
2023-03-20T08:33:30.085Z,82.87
2023-03-20T08:34:29.828Z,82.77
2023-03-20T08:35:45.397Z,82.56
2023-03-20T08:36:29.801Z,82.46
2023-03-20T08:37:29.787Z,82.32
2023-03-20T08:38:30.480Z,81.81
2023-03-20T08:39:29.753Z,81.50
2023-03-20T08:40:29.758Z,81.40
2023-03-20T08:41:29.725Z,81.71
2023-03-20T08:42:29.750Z,80.99
2023-03-20T08:43:29.729Z,80.88
2023-03-20T08:44:29.737Z,80.64
2023-03-20T08:45:29.723Z,79.93
2023-03-20T08:46:29.677Z,80.19
2023-03-20T08:47:29.788Z,80.09
2023-03-20T08:48:29.668Z,79.79
2023-03-20T08:49:29.635Z,79.72
2023-03-20T08:50:29.623Z,80.13
2023-03-20T08:51:29.602Z,80.44
2023-03-20T08:52:29.607Z,80.23
2023-03-20T08:53:29.608Z,79.93
2023-03-20T08:54:29.568Z,79.93
2023-03-20T08:55:30.599Z,79.82
2023-03-20T08:56:29.538Z,79.62
2023-03-20T08:57:29.757Z,79.31
2023-03-20T08:58:29.539Z,79.41
2023-03-20T08:59:29.501Z,78.56
2023-03-20T09:00:29.485Z,77.57
2023-03-20T09:01:46.044Z,78.08
2023-03-20T09:02:29.627Z,77.77
2023-03-20T09:03:29.973Z,77.53
2023-03-20T09:04:29.465Z,77.64
2023-03-20T09:05:29.449Z,77.23
2023-03-20T09:06:29.415Z,77.12
2023-03-20T09:07:29.417Z,76.81
2023-03-20T09:08:29.396Z,76.20
2023-03-20T09:09:29.665Z,76.95
2023-03-20T09:10:29.388Z,77.16
2023-03-20T09:11:29.356Z,76.81
2023-03-20T09:12:29.335Z,77.02
2023-03-20T09:13:29.332Z,76.72
2023-03-20T09:14:29.326Z,77.23
2023-03-20T09:15:29.292Z,77.73
2023-03-20T09:16:29.500Z,77.12
2023-03-20T09:17:30.109Z,76.81
2023-03-20T09:18:29.277Z,77.23
2023-03-20T09:19:31.760Z,76.92
2023-03-20T09:20:29.259Z,76.27
2023-03-20T09:21:29.273Z,75.76
2023-03-20T09:22:29.230Z,75.65
2023-03-20T09:23:29.213Z,75.76
2023-03-20T09:24:29.204Z,75.79
2023-03-20T09:25:29.267Z,76.20
2023-03-20T09:26:29.193Z,75.89
2023-03-20T09:27:29.154Z,75.79
2023-03-20T09:28:29.178Z,76.34
2023-03-20T09:29:29.134Z,76.54
2023-03-20T09:30:29.138Z,77.06
2023-03-20T09:31:29.220Z,77.47
2023-03-20T09:32:29.129Z,77.50
2023-03-20T09:33:29.101Z,77.57
2023-03-20T09:34:29.101Z,77.98
2023-03-20T09:35:29.063Z,77.98
2023-03-20T09:36:29.067Z,76.85
2023-03-20T09:37:29.027Z,76.54
2023-03-20T09:38:29.018Z,76.24
2023-03-20T09:39:28.998Z,76.24
2023-03-20T09:40:29.001Z,76.54
2023-03-20T09:41:29.013Z,76.34
2023-03-20T09:42:28.976Z,75.69
2023-03-20T09:43:28.960Z,75.59
2023-03-20T09:44:28.945Z,75.38
2023-03-20T09:45:28.965Z,75.18
2023-03-20T09:46:29.076Z,75.48
2023-03-20T09:47:28.913Z,75.11
2023-03-20T09:48:28.915Z,75.21
2023-03-20T09:49:28.904Z,75.42
2023-03-20T09:50:28.879Z,75.62
2023-03-20T09:51:28.910Z,76.20
2023-03-20T09:52:28.838Z,76.20
2023-03-20T09:53:28.901Z,76.10
2023-03-20T09:54:28.877Z,75.69
2023-03-20T09:55:28.846Z,74.77
2023-03-20T09:56:28.869Z,74.66
2023-03-20T09:57:28.828Z,75.07
2023-03-20T09:58:28.765Z,74.77
2023-03-20T09:59:28.757Z,74.43
2023-03-20T10:00:28.762Z,74.32
2023-03-20T10:01:28.846Z,74.02
2023-03-20T10:02:28.715Z,0.00
2023-03-20T10:03:28.719Z,73.98
2023-03-20T10:04:28.827Z,73.81
2023-03-20T10:05:28.683Z,74.02
2023-03-20T10:06:28.692Z,74.05
2023-03-20T10:07:28.652Z,100.00
2023-03-20T10:08:28.660Z,73.91
2023-03-20T10:09:28.692Z,73.40
2023-03-20T10:10:28.599Z,73.16
2023-03-20T10:11:28.634Z,72.34
2023-03-20T10:12:28.597Z,72.17
2023-03-20T10:13:28.597Z,72.48
2023-03-20T10:14:28.555Z,71.97
2023-03-20T10:15:28.589Z,72.17
2023-03-20T10:16:28.567Z,72.38
2023-03-20T10:17:34.561Z,71.90
2023-03-20T10:18:28.536Z,71.80
2023-03-20T10:19:28.524Z,72.31
2023-03-20T10:20:28.496Z,72.07
2023-03-20T10:21:28.495Z,71.56
2023-03-20T10:22:28.464Z,71.04
2023-03-20T10:23:28.519Z,70.87
2023-03-20T10:24:28.452Z,70.98
2023-03-20T10:25:28.432Z,70.98
2023-03-20T10:26:28.442Z,71.49
2023-03-20T10:27:28.537Z,71.28
2023-03-20T10:28:28.427Z,70.77
2023-03-20T10:29:28.382Z,70.77
2023-03-20T10:30:28.369Z,69.75
2023-03-20T10:31:28.396Z,69.75
2023-03-20T10:32:34.350Z,70.16
2023-03-20T10:33:28.370Z,69.44
2023-03-20T10:34:28.301Z,68.14
2023-03-20T10:35:28.323Z,67.32
2023-03-20T10:36:28.292Z,67.11
2023-03-20T10:37:28.278Z,67.52
2023-03-20T10:38:28.289Z,68.04
2023-03-20T10:39:28.251Z,67.80
2023-03-20T10:40:28.248Z,67.40
2023-03-20T10:41:28.216Z,67.29
2023-03-20T10:42:28.207Z,66.98
2023-03-20T10:43:28.209Z,67.49
2023-03-20T10:44:28.195Z,67.70
2023-03-20T10:45:28.177Z,67.70
2023-03-20T10:46:28.226Z,67.90
2023-03-20T10:47:28.266Z,68.41
2023-03-20T10:48:28.144Z,69.03
2023-03-20T10:49:28.126Z,69.54
2023-03-20T10:50:28.110Z,69.03
2023-03-20T10:51:28.165Z,69.03
2023-03-20T10:52:28.077Z,69.44
2023-03-20T10:53:28.069Z,69.54
2023-03-20T10:54:28.051Z,69.20
2023-03-20T10:55:28.058Z,69.10
2023-03-20T10:56:28.048Z,69.20
2023-03-20T10:57:28.059Z,69.10
2023-03-20T10:58:28.052Z,69.51
2023-03-20T10:59:27.995Z,69.61
2023-03-20T11:00:27.981Z,69.79
2023-03-20T11:01:28.038Z,69.20
2023-03-20T11:02:27.953Z,69.20
2023-03-20T11:03:28.014Z,69.65
2023-03-20T11:04:28.059Z,70.16
2023-03-20T11:05:27.930Z,70.16
2023-03-20T11:06:27.923Z,69.13
2023-03-20T11:07:27.913Z,68.52
2023-03-20T11:08:27.890Z,68.93
2023-03-20T11:09:27.876Z,68.35
2023-03-20T11:10:27.849Z,68.86
2023-03-20T11:11:27.841Z,69.27
2023-03-20T11:12:27.820Z,69.47
2023-03-20T11:13:27.831Z,69.47
2023-03-20T11:14:27.805Z,69.37
2023-03-20T11:15:27.797Z,69.47
2023-03-20T11:16:27.818Z,69.98
2023-03-20T11:17:27.785Z,70.06
2023-03-20T11:18:27.798Z,70.16
2023-03-20T11:19:27.746Z,69.75
2023-03-20T11:20:27.732Z,69.34
2023-03-20T11:21:27.740Z,69.95
2023-03-20T11:22:27.724Z,70.06
2023-03-20T11:23:27.770Z,70.60
2023-03-20T11:24:27.674Z,71.01
2023-03-20T11:25:27.667Z,70.81
2023-03-20T11:26:27.664Z,71.25
2023-03-20T11:27:27.653Z,71.32
2023-03-20T11:28:27.655Z,71.01
2023-03-20T11:29:27.619Z,71.11
2023-03-20T11:30:27.592Z,71.08
2023-03-20T11:31:27.638Z,70.67
2023-03-20T11:32:27.575Z,70.26
2023-03-20T11:33:27.601Z,70.36
2023-03-20T11:34:27.554Z,70.57
2023-03-20T11:35:27.547Z,71.15
2023-03-20T11:36:28.258Z,71.04
2023-03-20T11:37:27.510Z,71.08
2023-03-20T11:38:28.237Z,71.56
2023-03-20T11:39:27.491Z,71.77
2023-03-20T11:40:27.476Z,71.86
2023-03-20T11:41:27.459Z,71.77
2023-03-20T11:42:27.447Z,71.66
2023-03-20T11:43:27.520Z,71.80
2023-03-20T11:44:27.420Z,70.73
2023-03-20T11:45:27.403Z,71.97
2023-03-20T11:46:27.427Z,72.68
2023-03-20T11:47:27.392Z,72.82
2023-03-20T11:48:27.366Z,74.05
2023-03-20T11:49:27.364Z,74.05
2023-03-20T11:50:27.340Z,74.57
2023-03-20T11:51:27.407Z,74.98
2023-03-20T11:52:27.325Z,74.66
2023-03-20T11:53:27.321Z,74.98
2023-03-20T11:54:27.298Z,76.00
2023-03-20T11:55:27.324Z,76.92
2023-03-20T11:56:27.286Z,77.44
2023-03-20T11:57:27.256Z,78.25
2023-03-20T11:58:27.268Z,78.16
2023-03-20T11:59:27.243Z,78.42
2023-03-20T12:00:27.227Z,77.09
2023-03-20T12:01:27.236Z,76.82
2023-03-20T12:02:27.293Z,76.89
2023-03-20T12:03:27.257Z,77.09
2023-03-20T12:04:27.172Z,76.85
2023-03-20T12:05:27.175Z,75.76
2023-03-20T12:06:27.277Z,76.31
2023-03-20T12:07:27.138Z,76.68
2023-03-20T12:08:27.151Z,77.20
2023-03-20T12:09:27.186Z,77.61
2023-03-20T12:10:27.105Z,76.37
2023-03-20T12:11:27.114Z,76.07
2023-03-20T12:12:27.067Z,77.09
2023-03-20T12:13:27.132Z,76.99
2023-03-20T12:14:27.040Z,77.91
2023-03-20T12:15:27.068Z,78.67
2023-03-20T12:16:27.129Z,79.49
2023-03-20T12:17:27.012Z,79.80
2023-03-20T12:18:27.038Z,79.80
2023-03-20T12:19:26.987Z,80.62
2023-03-20T12:20:26.978Z,80.45
2023-03-20T12:21:26.982Z,80.45
2023-03-20T12:22:26.959Z,79.97
2023-03-20T12:23:26.942Z,80.18
2023-03-20T12:24:26.925Z,80.28
2023-03-20T12:25:26.911Z,80.58
2023-03-20T12:26:26.923Z,80.49
2023-03-20T12:27:26.912Z,80.58
2023-03-20T12:28:26.919Z,80.69
2023-03-20T12:29:26.882Z,80.49
2023-03-20T12:30:26.875Z,80.49
2023-03-20T12:31:26.884Z,80.76
2023-03-20T12:32:26.831Z,80.55
2023-03-20T12:33:26.839Z,79.46
2023-03-20T12:34:26.798Z,78.85
2023-03-20T12:35:26.798Z,78.85
2023-03-20T12:36:26.805Z,79.05
2023-03-20T12:37:26.766Z,79.15
2023-03-20T12:38:26.756Z,78.74
2023-03-20T12:39:26.737Z,79.05
2023-03-20T12:40:28.023Z,79.46
2023-03-20T12:41:26.733Z,79.66
2023-03-20T12:42:26.746Z,80.28
2023-03-20T12:43:26.703Z,80.14
2023-03-20T12:44:26.663Z,80.35
2023-03-20T12:45:26.665Z,80.62
2023-03-20T12:46:26.715Z,80.55
2023-03-20T12:47:26.679Z,80.55
2023-03-20T12:48:26.655Z,80.10
2023-03-20T12:49:26.614Z,80.31
2023-03-20T12:50:26.600Z,79.59
2023-03-20T12:51:26.620Z,79.18
2023-03-20T12:52:26.588Z,79.35
2023-03-20T12:53:26.578Z,77.20